Maria Noelle — WDD9564 — position and weather

sailwx.info

Track history (hours):
 
Tides and Currents Weather Stations Pressure Air Temp Water Temp Dewpoint Dewpoint Depression Visibility Wind Speed Wind Dir Waves Ship Positions

Maria Noelle

Owner: MUROS INC, POINT PLEASANT, NJ. More information available from US FCC via Universal Licensing System and Coast Guard Vessel Documentation Center.

Last reported at 2015-Apr-17 01:17 UTC. Time now 2015-Apr-18 08:52 UTC.
Position N 40°06' W 073°22'.

Length 26 m.

Type: Fishing. MMSI: 367313170.

Date/timePositionNaut miles runAvg speedWind from/ knotsBaromVisibWave heightAir tempDewpointWater temp
2015-Apr-17 01:17N 40°06' W 073°22'6 7.7
2015-Apr-17 00:30N 40°06' W 073°30'9 8.7
2015-Apr-16 23:26N 40°06' W 073°42'8 8.8
2015-Apr-16 22:29N 40°06' W 073°53'5 0.2
2015-Apr-16 02:23N 40°06' W 073°60'12 0.5
2015-Apr-15 01:29N 40°06' W 073°43'7 7.9
2015-Apr-15 00:33N 40°06' W 073°53'7 6.8
2015-Apr-14 23:30N 40°06' W 074°02'2 1.8
2015-Apr-14 22:33N 40°06' W 074°00'9 8.4
2015-Apr-14 21:26N 40°06' W 073°48'7 8.6
2015-Apr-14 20:33N 40°06' W 073°38'8 8.3
2015-Apr-14 19:33N 40°06' W 073°27'12 0.9
2015-Apr-14 06:06N 40°07' W 073°42'5 8.3
2015-Apr-14 05:33N 40°07' W 073°48'8 8.4
2015-Apr-14 04:32N 40°06' W 073°59'  
Track history (hours):
 
Tides and Currents Weather Stations Pressure Air Temp Water Temp Dewpoint Dewpoint Depression Visibility Wind Speed Wind Dir Waves Ship Positions

Maria Noelle

Owner: MUROS INC, POINT PLEASANT, NJ. More information available from US FCC via Universal Licensing System and Coast Guard Vessel Documentation Center.

Last reported at 2015-Apr-17 01:17 UTC. Time now 2015-Apr-18 08:52 UTC.
Position N 40°06' W 073°22'.

Length 26 m.

Type: Fishing. MMSI: 367313170.

Date/timePositionNaut miles runAvg speedWind from/ knotsBaromVisibWave heightAir tempDewpointWater temp
2015-Apr-17 01:17N 40°06' W 073°22'6 7.7
2015-Apr-17 00:30N 40°06' W 073°30'9 8.7
2015-Apr-16 23:26N 40°06' W 073°42'8 8.8
2015-Apr-16 22:29N 40°06' W 073°53'5 0.2
2015-Apr-16 02:23N 40°06' W 073°60'12 0.5
2015-Apr-15 01:29N 40°06' W 073°43'7 7.9
2015-Apr-15 00:33N 40°06' W 073°53'7 6.8
2015-Apr-14 23:30N 40°06' W 074°02'2 1.8
2015-Apr-14 22:33N 40°06' W 074°00'9 8.4
2015-Apr-14 21:26N 40°06' W 073°48'7 8.6
2015-Apr-14 20:33N 40°06' W 073°38'8 8.3
2015-Apr-14 19:33N 40°06' W 073°27'12 0.9
2015-Apr-14 06:06N 40°07' W 073°42'5 8.3
2015-Apr-14 05:33N 40°07' W 073°48'8 8.4
2015-Apr-14 04:32N 40°06' W 073°59'  

Dump ship's entire track history